createdAt,value
2023-04-15T00:01:10.064Z,66.45
2023-04-15T00:03:37.546Z,65.78
2023-04-15T00:06:04.995Z,65.72
2023-04-15T00:08:32.115Z,64.86
2023-04-15T00:11:03.156Z,64.83
2023-04-15T00:13:30.530Z,63.91
2023-04-15T00:15:58.206Z,65.00
2023-04-15T00:18:25.765Z,63.43
2023-04-15T00:20:53.616Z,63.88
2023-04-15T00:23:20.941Z,64.39
2023-04-15T00:25:47.946Z,65.73
2023-04-15T00:28:15.197Z,65.79
2023-04-15T00:30:43.133Z,64.53
2023-04-15T00:33:10.884Z,64.70
2023-04-15T00:35:38.834Z,63.77
2023-04-15T00:38:10.208Z,61.94
2023-04-15T00:40:38.051Z,61.82
2023-04-15T00:43:05.761Z,61.36
2023-04-15T00:45:33.581Z,60.72
2023-04-15T00:48:00.910Z,60.45
2023-04-15T00:50:28.279Z,59.80
2023-04-15T00:52:55.534Z,59.96
2023-04-15T00:55:22.748Z,59.60
2023-04-15T00:57:50.784Z,59.70
2023-04-15T01:00:18.249Z,60.42
2023-04-15T01:02:46.591Z,61.23
2023-04-15T01:05:13.837Z,62.18
2023-04-15T01:07:40.983Z,62.11
2023-04-15T01:10:08.749Z,61.79
2023-04-15T01:12:37.958Z,61.75
2023-04-15T01:15:05.976Z,62.61
2023-04-15T01:17:33.940Z,62.46
2023-04-15T01:20:01.412Z,62.96
2023-04-15T01:22:31.691Z,62.43
2023-04-15T01:25:09.992Z,62.38
2023-04-15T01:27:40.058Z,62.37
2023-04-15T01:30:08.991Z,63.02
2023-04-15T01:32:36.481Z,63.32
2023-04-15T01:35:22.621Z,63.90
2023-04-15T01:37:51.917Z,64.15
2023-04-15T01:40:19.093Z,64.26
2023-04-15T01:42:47.511Z,64.10
2023-04-15T01:45:17.729Z,63.67
2023-04-15T01:47:46.221Z,63.21
2023-04-15T01:50:15.381Z,63.37
2023-04-15T01:52:43.721Z,62.51
2023-04-15T01:55:13.415Z,63.28
2023-04-15T01:57:42.433Z,63.54
2023-04-15T02:00:11.785Z,64.10
2023-04-15T02:02:43.855Z,64.66
2023-04-15T02:05:12.366Z,64.99
2023-04-15T02:07:40.688Z,65.17
2023-04-15T02:10:11.841Z,64.66
2023-04-15T02:12:40.773Z,65.69
2023-04-15T02:15:10.495Z,65.49
2023-04-15T02:17:38.871Z,65.19
2023-04-15T02:20:09.499Z,65.06
2023-04-15T02:22:37.897Z,65.21
2023-04-15T02:25:07.213Z,65.08
2023-04-15T02:27:38.882Z,64.70
2023-04-15T02:30:08.098Z,64.64
2023-04-15T02:32:38.220Z,64.22
2023-04-15T02:35:08.903Z,64.18
2023-04-15T02:37:43.517Z,63.21
2023-04-15T02:40:13.536Z,63.34
2023-04-15T02:42:42.949Z,63.01
2023-04-15T02:45:13.954Z,63.21
2023-04-15T02:47:44.085Z,63.49
2023-04-15T02:50:13.818Z,63.60
2023-04-15T02:52:43.550Z,64.00
2023-04-15T02:55:12.880Z,62.99
2023-04-15T02:57:41.638Z,62.46
2023-04-15T03:00:12.411Z,63.00
2023-04-15T03:02:44.827Z,63.22
2023-04-15T03:05:14.923Z,64.36
2023-04-15T03:07:51.127Z,64.21
2023-04-15T03:10:20.934Z,64.00
2023-04-15T03:12:49.398Z,64.15
2023-04-15T03:15:20.481Z,64.04
2023-04-15T03:17:52.305Z,63.96
2023-04-15T03:20:21.023Z,63.57
2023-04-15T03:22:50.364Z,63.14
2023-04-15T03:25:20.515Z,63.63
2023-04-15T03:27:48.848Z,63.05
2023-04-15T03:30:18.246Z,62.97
2023-04-15T03:32:47.319Z,63.57
2023-04-15T03:35:16.149Z,63.54
2023-04-15T03:37:44.521Z,63.81
2023-04-15T03:40:13.132Z,64.45
2023-04-15T03:42:41.716Z,63.88
2023-04-15T03:45:11.007Z,64.60
2023-04-15T03:47:39.548Z,65.15
2023-04-15T03:50:08.466Z,64.87
2023-04-15T03:52:36.895Z,64.47
2023-04-15T03:55:05.610Z,65.28
2023-04-15T03:57:38.211Z,65.29
2023-04-15T04:00:07.438Z,64.70
2023-04-15T04:02:40.138Z,64.53
2023-04-15T04:05:09.040Z,65.45
2023-04-15T04:07:37.562Z,65.37
2023-04-15T04:10:06.545Z,65.33
2023-04-15T04:12:34.908Z,65.84
2023-04-15T04:15:03.604Z,65.32
2023-04-15T04:17:31.961Z,66.16
2023-04-15T04:20:00.363Z,66.12
2023-04-15T04:22:28.859Z,67.00
2023-04-15T04:24:59.468Z,66.51
2023-04-15T04:27:27.914Z,67.01
2023-04-15T04:29:56.617Z,66.09
2023-04-15T04:32:25.102Z,65.33
2023-04-15T04:34:53.554Z,65.34
2023-04-15T04:37:23.381Z,65.31
2023-04-15T04:39:51.824Z,64.92
2023-04-15T04:42:20.504Z,65.06
2023-04-15T04:44:48.933Z,64.31
2023-04-15T04:47:17.340Z,64.45
2023-04-15T04:49:45.901Z,64.23
2023-04-15T04:52:31.992Z,64.48
2023-04-15T04:55:00.496Z,63.61
2023-04-15T04:57:28.871Z,63.64
2023-04-15T04:59:57.695Z,63.77
2023-04-15T05:02:27.816Z,63.01
2023-04-15T05:04:56.375Z,63.20
2023-04-15T05:07:24.885Z,63.10
2023-04-15T05:09:53.266Z,63.44
2023-04-15T05:12:21.763Z,63.05
2023-04-15T05:14:50.129Z,62.36
2023-04-15T05:17:18.595Z,62.00
2023-04-15T05:19:46.976Z,61.74
2023-04-15T05:22:15.640Z,61.41
2023-04-15T05:24:44.019Z,61.39
2023-04-15T05:27:12.594Z,61.53
2023-04-15T05:29:41.011Z,61.53
2023-04-15T05:32:09.458Z,61.89
2023-04-15T05:34:37.950Z,61.91
2023-04-15T05:37:06.322Z,62.35
2023-04-15T05:39:34.773Z,61.70
2023-04-15T05:42:03.648Z,61.88
2023-04-15T05:44:32.231Z,61.70
2023-04-15T05:47:00.918Z,62.80
2023-04-15T05:49:29.941Z,63.10
2023-04-15T05:51:58.383Z,62.95
2023-04-15T05:54:27.991Z,63.33
2023-04-15T05:56:57.872Z,63.38
2023-04-15T05:59:26.304Z,63.11
2023-04-15T06:01:54.671Z,62.06
2023-04-15T06:04:23.192Z,61.26
2023-04-15T06:06:51.660Z,60.59
2023-04-15T06:09:20.397Z,59.22
2023-04-15T06:11:49.152Z,59.02
2023-04-15T06:14:17.499Z,58.77
2023-04-15T06:16:45.899Z,59.10
2023-04-15T06:19:14.882Z,59.50
2023-04-15T06:21:43.764Z,59.70
2023-04-15T06:24:12.640Z,59.70
2023-04-15T06:26:41.123Z,59.13
2023-04-15T06:29:09.398Z,58.84
2023-04-15T06:31:37.772Z,57.94
2023-04-15T06:34:06.356Z,56.84
2023-04-15T06:36:34.792Z,56.40
2023-04-15T06:39:03.944Z,55.50
2023-04-15T06:41:33.145Z,55.15
2023-04-15T06:44:01.601Z,54.15
2023-04-15T06:46:29.871Z,53.85
2023-04-15T06:48:58.277Z,53.58
2023-04-15T06:51:27.204Z,54.01
2023-04-15T06:53:55.628Z,52.25
2023-04-15T06:56:24.140Z,53.33
2023-04-15T06:58:52.704Z,53.57
2023-04-15T07:01:21.580Z,53.63
2023-04-15T07:03:50.030Z,54.04
2023-04-15T07:06:18.535Z,53.18
2023-04-15T07:08:46.972Z,53.26
2023-04-15T07:11:15.481Z,52.39
2023-04-15T07:13:43.868Z,51.89
2023-04-15T07:16:12.413Z,51.47
2023-04-15T07:18:40.842Z,52.25
2023-04-15T07:21:09.343Z,48.82
2023-04-15T07:23:37.743Z,49.38
2023-04-15T07:26:06.186Z,49.24
2023-04-15T07:28:34.583Z,49.81
2023-04-15T07:31:03.073Z,48.66
2023-04-15T07:33:31.612Z,49.28
2023-04-15T07:36:00.160Z,48.59
2023-04-15T07:38:28.658Z,48.78
2023-04-15T07:40:57.108Z,47.77
2023-04-15T07:43:25.681Z,47.43
2023-04-15T07:45:54.168Z,47.62
2023-04-15T07:48:22.593Z,47.95
2023-04-15T07:50:51.013Z,47.49
2023-04-15T07:53:19.337Z,47.61
2023-04-15T07:55:47.672Z,46.93
2023-04-15T07:58:16.481Z,47.21
2023-04-15T08:00:44.815Z,47.24
2023-04-15T08:03:13.510Z,46.34
2023-04-15T08:05:42.113Z,45.56
2023-04-15T08:08:10.497Z,44.81
2023-04-15T08:10:38.901Z,45.43
2023-04-15T08:13:07.984Z,46.34
2023-04-15T08:15:36.581Z,45.97
2023-04-15T08:18:05.037Z,46.34
2023-04-15T08:20:33.475Z,45.45
2023-04-15T08:23:02.149Z,46.50
2023-04-15T08:25:30.559Z,46.33
2023-04-15T08:27:58.903Z,44.88
2023-04-15T08:30:28.130Z,44.16
2023-04-15T08:32:56.799Z,45.04
2023-04-15T08:35:25.230Z,45.29
2023-04-15T08:37:53.642Z,43.82
2023-04-15T08:40:27.498Z,44.05
2023-04-15T08:42:57.784Z,42.84
2023-04-15T08:45:26.519Z,42.33
2023-04-15T08:47:56.833Z,42.35
2023-04-15T08:50:26.392Z,42.48
2023-04-15T08:52:56.547Z,41.66
2023-04-15T08:55:29.757Z,42.52
2023-04-15T08:57:58.391Z,42.15
2023-04-15T09:00:27.208Z,41.78
2023-04-15T09:02:57.056Z,41.14
2023-04-15T09:05:25.897Z,40.83
2023-04-15T09:07:54.350Z,40.41
2023-04-15T09:10:23.335Z,40.49
2023-04-15T09:12:51.962Z,39.13
2023-04-15T09:15:21.026Z,39.37
2023-04-15T09:17:49.383Z,38.99
2023-04-15T09:20:20.449Z,38.65
2023-04-15T09:22:50.272Z,39.19
2023-04-15T09:25:24.967Z,39.43
2023-04-15T09:27:59.796Z,39.95
2023-04-15T09:30:29.717Z,39.55
2023-04-15T09:33:00.800Z,39.64
2023-04-15T09:35:29.306Z,38.40
2023-04-15T09:38:15.812Z,38.73
2023-04-15T09:40:44.226Z,38.51
2023-04-15T09:43:16.960Z,39.32
2023-04-15T09:45:50.450Z,38.87
2023-04-15T09:48:21.276Z,38.24
2023-04-15T09:50:50.581Z,38.67
2023-04-15T09:53:23.932Z,38.47
2023-04-15T09:55:54.785Z,38.75
2023-04-15T09:58:28.523Z,38.41
2023-04-15T10:00:58.616Z,37.91
2023-04-15T10:03:28.964Z,38.22
2023-04-15T10:05:59.826Z,38.18
2023-04-15T10:08:30.414Z,37.07
2023-04-15T10:10:59.127Z,36.72
2023-04-15T10:13:33.471Z,37.78
2023-04-15T10:16:12.247Z,36.81
2023-04-15T10:18:45.789Z,36.49
2023-04-15T10:21:18.580Z,36.13
2023-04-15T10:23:47.885Z,35.58
2023-04-15T10:26:17.845Z,35.39
2023-04-15T10:28:49.547Z,35.10
2023-04-15T10:31:18.715Z,35.58
2023-04-15T10:33:49.009Z,34.00
2023-04-15T10:36:19.300Z,34.84
2023-04-15T10:38:47.750Z,35.26
2023-04-15T10:41:28.210Z,34.21
2023-04-15T10:44:01.495Z,34.65
2023-04-15T10:46:47.532Z,34.20
2023-04-15T10:49:17.891Z,34.84
2023-04-15T10:51:51.277Z,34.94
2023-04-15T10:54:25.710Z,34.78
2023-04-15T10:57:23.702Z,35.49
2023-04-15T10:59:58.910Z,34.86
2023-04-15T11:02:43.872Z,35.13
2023-04-15T11:05:13.852Z,34.64
2023-04-15T11:07:49.984Z,35.57
2023-04-15T11:10:18.412Z,36.07
2023-04-15T11:12:48.360Z,36.98
2023-04-15T11:15:31.382Z,38.04
2023-04-15T11:18:13.188Z,36.38
2023-04-15T11:20:47.493Z,37.04
2023-04-15T11:23:17.132Z,37.97
2023-04-15T11:25:46.422Z,38.17
2023-04-15T11:28:15.076Z,37.88
2023-04-15T11:30:44.025Z,36.88
2023-04-15T11:33:14.095Z,37.55
2023-04-15T11:35:43.099Z,37.43
2023-04-15T11:38:14.102Z,37.60
2023-04-15T11:40:46.206Z,37.63
2023-04-15T11:43:21.241Z,37.97
2023-04-15T11:46:01.217Z,38.32
2023-04-15T11:48:35.374Z,37.78
2023-04-15T11:51:06.039Z,37.60
2023-04-15T11:53:47.558Z,37.21
2023-04-15T11:56:20.432Z,37.73
2023-04-15T11:58:48.477Z,38.04
2023-04-15T12:01:15.631Z,37.90
2023-04-15T12:03:47.320Z,37.77
2023-04-15T12:06:23.594Z,37.68
2023-04-15T12:08:59.118Z,37.65
2023-04-15T12:11:33.641Z,37.17
2023-04-15T12:14:11.304Z,37.35
2023-04-15T12:17:03.143Z,37.35
2023-04-15T12:19:42.094Z,36.74
2023-04-15T12:22:11.036Z,36.49
2023-04-15T12:24:39.473Z,36.69
2023-04-15T12:27:08.910Z,36.68
2023-04-15T12:29:38.496Z,36.66
2023-04-15T12:32:09.529Z,35.98
2023-04-15T12:34:45.757Z,36.49
2023-04-15T12:37:14.470Z,36.13
2023-04-15T12:39:43.918Z,36.33
2023-04-15T12:42:12.127Z,36.46
2023-04-15T12:44:40.307Z,37.00
2023-04-15T12:47:09.142Z,36.76
2023-04-15T12:49:36.433Z,36.51
2023-04-15T12:52:04.163Z,36.98
2023-04-15T12:54:32.330Z,37.39
2023-04-15T12:57:00.004Z,36.63
2023-04-15T12:59:27.325Z,36.82
2023-04-15T13:01:54.822Z,35.71
2023-04-15T13:04:22.758Z,34.25
2023-04-15T13:06:50.318Z,34.36
2023-04-15T13:09:17.527Z,34.25
2023-04-15T13:11:44.838Z,34.26
2023-04-15T13:14:13.358Z,34.46
2023-04-15T13:16:41.049Z,34.56
2023-04-15T13:19:08.331Z,33.97
2023-04-15T13:21:36.402Z,34.34
2023-04-15T13:24:05.092Z,33.60
2023-04-15T13:26:33.009Z,34.13
2023-04-15T13:29:00.783Z,34.37
2023-04-15T13:31:28.188Z,35.07
2023-04-15T13:33:57.155Z,34.22
2023-04-15T13:36:24.404Z,34.67
2023-04-15T13:38:52.089Z,35.15
2023-04-15T13:41:20.152Z,34.71
2023-04-15T13:43:47.486Z,34.66
2023-04-15T13:46:15.069Z,35.07
2023-04-15T13:48:42.469Z,34.47
2023-04-15T13:51:09.985Z,34.84
2023-04-15T13:53:38.195Z,34.42
2023-04-15T13:56:08.445Z,34.44
2023-04-15T13:58:36.594Z,35.31
2023-04-15T14:01:05.835Z,34.95
2023-04-15T14:03:34.982Z,34.65
2023-04-15T14:06:02.538Z,34.81
2023-04-15T14:08:30.330Z,34.99
2023-04-15T14:10:57.950Z,34.96
2023-04-15T14:13:25.350Z,34.71
2023-04-15T14:15:52.686Z,34.61
2023-04-15T14:18:20.093Z,34.90
2023-04-15T14:20:47.392Z,34.23
2023-04-15T14:23:15.846Z,34.48
2023-04-15T14:25:43.018Z,34.22
2023-04-15T14:28:10.459Z,33.62
2023-04-15T14:30:37.691Z,33.76
2023-04-15T14:33:04.934Z,33.34
2023-04-15T14:35:32.668Z,33.26
2023-04-15T14:37:59.850Z,33.82
2023-04-15T14:40:27.224Z,32.67
2023-04-15T14:42:54.359Z,33.58
2023-04-15T14:45:21.584Z,32.25
2023-04-15T14:47:48.925Z,31.54
2023-04-15T14:50:16.163Z,31.69
2023-04-15T14:52:43.236Z,31.96
2023-04-15T14:55:11.631Z,31.98
2023-04-15T14:57:40.090Z,32.24
2023-04-15T15:00:08.396Z,31.92
2023-04-15T15:02:39.619Z,32.50
2023-04-15T15:05:08.467Z,32.39
2023-04-15T15:07:39.462Z,31.77
2023-04-15T15:10:07.449Z,31.91
2023-04-15T15:12:34.779Z,32.17
2023-04-15T15:15:09.550Z,31.94
2023-04-15T15:17:39.852Z,32.19
2023-04-15T15:20:07.857Z,32.59
2023-04-15T15:22:35.050Z,31.89
2023-04-15T15:25:02.432Z,31.83
2023-04-15T15:27:29.681Z,32.32
2023-04-15T15:29:57.108Z,32.33
2023-04-15T15:32:24.438Z,32.01
2023-04-15T15:34:51.886Z,32.38
2023-04-15T15:37:19.083Z,32.09
2023-04-15T15:39:46.297Z,32.11
2023-04-15T15:42:13.505Z,32.71
2023-04-15T15:44:40.685Z,32.68
2023-04-15T15:47:07.972Z,32.30
2023-04-15T15:49:35.287Z,32.35
2023-04-15T15:52:02.496Z,32.32
2023-04-15T15:54:29.929Z,32.14
2023-04-15T15:56:57.669Z,32.34
2023-04-15T15:59:25.687Z,32.53
2023-04-15T16:01:53.334Z,32.85
2023-04-15T16:04:21.068Z,32.87
2023-04-15T16:06:48.858Z,32.59
2023-04-15T16:09:16.283Z,32.34
2023-04-15T16:11:47.446Z,32.66
2023-04-15T16:14:14.725Z,32.47
2023-04-15T16:16:42.133Z,32.67
2023-04-15T16:19:09.315Z,32.97
2023-04-15T16:21:36.750Z,33.36
2023-04-15T16:24:04.075Z,33.69
2023-04-15T16:26:31.547Z,33.75
2023-04-15T16:28:58.818Z,33.76
2023-04-15T16:31:26.162Z,34.02
2023-04-15T16:33:53.425Z,34.66
2023-04-15T16:36:20.776Z,34.91
2023-04-15T16:38:48.914Z,35.34
2023-04-15T16:41:16.483Z,35.76
2023-04-15T16:43:43.685Z,35.78
2023-04-15T16:46:10.951Z,35.79
2023-04-15T16:48:38.216Z,36.02
2023-04-15T16:51:05.620Z,36.49
2023-04-15T16:53:32.691Z,36.48
2023-04-15T16:55:59.815Z,36.74
2023-04-15T16:58:28.064Z,36.94
2023-04-15T17:00:55.305Z,37.11
2023-04-15T17:03:22.623Z,37.23
2023-04-15T17:05:49.839Z,37.79
2023-04-15T17:08:17.127Z,38.32
2023-04-15T17:10:44.264Z,38.70
2023-04-15T17:13:11.469Z,39.13
2023-04-15T17:15:38.731Z,39.12
2023-04-15T17:18:22.117Z,39.43
2023-04-15T17:20:56.594Z,39.44
2023-04-15T17:23:26.240Z,39.43
2023-04-15T17:25:53.940Z,39.58
2023-04-15T17:28:21.243Z,39.36
2023-04-15T17:30:49.587Z,39.69
2023-04-15T17:34:00.813Z,39.81
2023-04-15T17:36:44.031Z,39.66
2023-04-15T17:39:12.038Z,39.57
2023-04-15T17:41:59.153Z,39.86
2023-04-15T17:44:46.356Z,39.75
2023-04-15T17:47:33.541Z,39.99
2023-04-15T17:50:20.793Z,40.33
2023-04-15T17:53:07.957Z,40.56
2023-04-15T17:55:55.794Z,40.73
2023-04-15T17:58:43.664Z,40.83
2023-04-15T18:01:30.944Z,41.18
2023-04-15T18:04:18.226Z,41.64
2023-04-15T18:07:06.182Z,41.93
2023-04-15T18:09:56.020Z,42.15
2023-04-15T18:12:43.169Z,42.28
2023-04-15T18:15:31.421Z,42.42
2023-04-15T18:18:18.681Z,42.57
2023-04-15T18:21:00.535Z,42.63
2023-04-15T18:23:27.946Z,43.09
2023-04-15T18:25:55.412Z,43.47
2023-04-15T18:28:22.976Z,43.92
2023-04-15T18:30:50.149Z,43.89
2023-04-15T18:33:17.363Z,43.88
2023-04-15T18:35:44.563Z,43.75
2023-04-15T18:38:11.923Z,44.09
2023-04-15T18:40:39.062Z,44.10
2023-04-15T18:43:06.205Z,43.97
2023-04-15T18:45:33.381Z,43.80
2023-04-15T18:48:00.515Z,44.40
2023-04-15T18:50:27.770Z,44.52
2023-04-15T18:52:54.984Z,44.61
2023-04-15T18:55:22.929Z,44.74
2023-04-15T18:57:50.193Z,44.76
2023-04-15T19:00:18.482Z,45.10
2023-04-15T19:02:45.799Z,45.09
2023-04-15T19:05:13.074Z,45.10
2023-04-15T19:07:41.253Z,45.49
2023-04-15T19:10:08.649Z,45.42
2023-04-15T19:12:36.731Z,45.39
2023-04-15T19:15:04.946Z,45.80
2023-04-15T19:17:32.269Z,45.99
2023-04-15T19:19:59.466Z,45.90
2023-04-15T19:22:27.222Z,46.32
2023-04-15T19:24:54.565Z,47.04
2023-04-15T19:27:21.728Z,46.72
2023-04-15T19:29:49.236Z,46.65
2023-04-15T19:32:16.459Z,46.60
2023-04-15T19:34:43.574Z,46.47
2023-04-15T19:37:11.469Z,46.21
2023-04-15T19:39:38.664Z,46.09
2023-04-15T19:42:05.827Z,46.00
2023-04-15T19:44:33.145Z,45.99
2023-04-15T19:47:00.361Z,45.79
2023-04-15T19:49:27.738Z,46.03
2023-04-15T19:51:55.075Z,45.69
2023-04-15T19:54:22.871Z,45.82
2023-04-15T19:56:50.024Z,45.65
2023-04-15T19:59:17.353Z,45.38
2023-04-15T20:01:44.536Z,45.11
2023-04-15T20:04:11.822Z,44.80
2023-04-15T20:06:39.053Z,45.05
2023-04-15T20:09:07.055Z,45.02
2023-04-15T20:12:06.131Z,45.33
2023-04-15T20:14:22.596Z,45.24
2023-04-15T20:16:49.793Z,44.96
2023-04-15T20:19:17.126Z,45.13
2023-04-15T20:21:44.438Z,45.42
2023-04-15T20:24:11.558Z,45.03
2023-04-15T20:26:38.639Z,45.06
2023-04-15T20:29:06.298Z,45.35
2023-04-15T20:31:34.196Z,45.56
2023-04-15T20:34:01.486Z,45.76
2023-04-15T20:36:28.630Z,46.05
2023-04-15T20:38:55.860Z,46.08
2023-04-15T20:41:23.423Z,46.80
2023-04-15T20:43:50.594Z,48.16
2023-04-15T20:46:21.566Z,48.49
2023-04-15T20:48:48.938Z,48.91
2023-04-15T20:51:16.220Z,49.23
2023-04-15T20:53:43.520Z,49.84
2023-04-15T20:56:11.828Z,49.99
2023-04-15T20:58:39.503Z,51.47
2023-04-15T21:01:06.818Z,51.35
2023-04-15T21:03:34.160Z,51.55
2023-04-15T21:06:01.410Z,51.77
2023-04-15T21:08:31.769Z,51.93
2023-04-15T21:10:58.979Z,52.35
2023-04-15T21:13:26.303Z,52.34
2023-04-15T21:15:54.469Z,52.54
2023-04-15T21:18:22.520Z,52.68
2023-04-15T21:20:59.706Z,53.12
2023-04-15T21:23:31.430Z,53.45
2023-04-15T21:25:59.074Z,53.39
2023-04-15T21:28:28.164Z,53.37
2023-04-15T21:30:56.434Z,53.63
2023-04-15T21:33:24.233Z,53.45
2023-04-15T21:35:51.639Z,53.34
2023-04-15T21:38:19.934Z,53.22
2023-04-15T21:40:50.452Z,53.21
2023-04-15T21:43:17.636Z,53.25
2023-04-15T21:46:22.477Z,53.44
2023-04-15T21:48:31.970Z,53.42
2023-04-15T21:51:00.091Z,53.16
2023-04-15T21:53:28.076Z,53.51
2023-04-15T21:55:55.290Z,53.25
2023-04-15T21:58:22.511Z,53.33
2023-04-15T22:00:49.781Z,53.56
2023-04-15T22:03:17.207Z,53.15
2023-04-15T22:05:47.697Z,53.61
2023-04-15T22:08:14.892Z,53.71
2023-04-15T22:10:42.105Z,53.64
2023-04-15T22:13:11.117Z,53.87
2023-04-15T22:15:38.246Z,54.15
2023-04-15T22:18:06.071Z,53.86
2023-04-15T22:20:33.378Z,54.26
2023-04-15T22:23:00.528Z,54.47
2023-04-15T22:25:27.704Z,54.27
2023-04-15T22:27:54.847Z,54.18
2023-04-15T22:30:22.133Z,54.14
2023-04-15T22:32:49.429Z,54.25
2023-04-15T22:35:16.646Z,54.33
2023-04-15T22:37:43.837Z,54.82
2023-04-15T22:40:11.658Z,54.88
2023-04-15T22:42:38.760Z,54.93
2023-04-15T22:45:06.636Z,55.40
2023-04-15T22:47:33.824Z,55.30
2023-04-15T22:50:01.006Z,55.37
2023-04-15T22:52:30.938Z,55.45
2023-04-15T22:54:59.076Z,55.85
2023-04-15T22:57:27.968Z,55.84
2023-04-15T22:59:55.410Z,56.05
2023-04-15T23:02:22.770Z,56.09
2023-04-15T23:04:50.129Z,55.62
2023-04-15T23:07:17.463Z,55.73
2023-04-15T23:09:44.692Z,55.55
2023-04-15T23:12:12.072Z,55.59
2023-04-15T23:14:39.269Z,55.83
2023-04-15T23:17:06.396Z,55.76
2023-04-15T23:19:33.609Z,55.97
2023-04-15T23:22:01.007Z,55.64
2023-04-15T23:24:28.094Z,56.01
2023-04-15T23:26:55.482Z,56.43
2023-04-15T23:29:22.629Z,56.34
2023-04-15T23:31:49.982Z,56.93
2023-04-15T23:34:17.292Z,56.87
2023-04-15T23:36:44.566Z,57.58
2023-04-15T23:39:11.909Z,57.60
2023-04-15T23:41:39.215Z,57.58
2023-04-15T23:44:06.499Z,58.07
2023-04-15T23:46:33.745Z,57.55
2023-04-15T23:49:01.222Z,57.72
2023-04-15T23:51:28.384Z,57.64
2023-04-15T23:53:55.670Z,57.42
2023-04-15T23:56:22.867Z,57.51
2023-04-15T23:58:50.071Z,57.96
